Time;durP1;ratioP1;P1;durP2;ratioP2;P2;SDS_P1;SDS_P2;PMS_P1;PMS_P2;Temp;Humidity;BMP_temperature;BMP_pressure;BME280_temperature;BME280_humidity;BME280_pressure;Samples;Min_cycle;Max_cycle;Signal;HPM_P1;HPM_P2
2021/07/09 00:00:57;;;;;;;7.18;5.50;;;18.70;99.90;;;;;;4978408;28;20078;-91
2021/07/09 00:03:24;;;;;;;9.52;6.10;;;18.70;99.90;;;;;;4977155;28;20054;-92
2021/07/09 00:05:49;;;;;;;6.45;5.07;;;18.70;99.90;;;;;;4976318;28;20051;-90
2021/07/09 00:08:15;;;;;;;7.93;5.22;;;18.70;99.90;;;;;;4976431;28;20027;-91
2021/07/09 00:10:40;;;;;;;7.65;5.38;;;18.70;99.90;;;;;;4976443;28;20023;-91
2021/07/09 00:13:06;;;;;;;6.97;5.50;;;18.60;99.90;;;;;;4976322;28;20065;-90
2021/07/09 00:15:34;;;;;;;6.25;5.20;;;18.60;99.90;;;;;;4976777;28;20070;-92
2021/07/09 00:18:00;;;;;;;7.07;5.40;;;18.60;99.90;;;;;;4976234;28;20054;-91
2021/07/09 00:20:25;;;;;;;8.35;6.05;;;18.60;99.90;;;;;;4976306;28;20474;-92
2021/07/09 00:22:51;;;;;;;8.68;6.22;;;18.60;99.90;;;;;;4976706;28;20033;-92
2021/07/09 00:25:17;;;;;;;9.30;5.90;;;18.50;99.90;;;;;;4976026;28;20031;-92
2021/07/09 00:27:43;;;;;;;9.63;7.38;;;18.50;99.90;;;;;;4975921;28;20034;-91
2021/07/09 00:30:09;;;;;;;9.75;7.18;;;18.50;99.90;;;;;;4975906;28;20023;-93
2021/07/09 00:32:35;;;;;;;11.00;7.15;;;18.40;99.90;;;;;;4975945;28;20023;-90
2021/07/09 00:35:00;;;;;;;11.70;7.57;;;18.40;99.90;;;;;;4976037;28;20382;-91
2021/07/09 00:37:26;;;;;;;8.55;6.70;;;18.30;99.90;;;;;;4975949;28;20027;-92
2021/07/09 00:39:51;;;;;;;7.68;6.88;;;18.30;99.90;;;;;;4975917;28;20480;-90
2021/07/09 00:42:17;;;;;;;9.05;7.47;;;18.30;99.90;;;;;;4976648;28;20015;-92
2021/07/09 00:44:42;;;;;;;9.48;7.47;;;18.20;99.90;;;;;;4976233;28;20404;-93
2021/07/09 00:47:10;;;;;;;10.63;8.10;;;18.10;99.90;;;;;;4976225;28;20034;-92
2021/07/09 00:49:36;;;;;;;8.85;7.38;;;18.10;99.90;;;;;;4976182;28;20030;-91
2021/07/09 00:52:02;;;;;;;12.52;8.07;;;18.10;99.90;;;;;;4976911;28;20027;-92
2021/07/09 00:54:28;;;;;;;11.55;7.00;;;18.00;99.90;;;;;;4976475;28;20029;-91
2021/07/09 00:57:13;;;;;;;11.77;8.43;;;18.00;99.90;;;;;;4976045;28;20030;-92
2021/07/09 00:59:47;;;;;;;10.25;8.38;;;18.00;99.90;;;;;;4976625;28;20018;-94
2021/07/09 01:02:14;;;;;;;10.88;7.50;;;17.80;99.90;;;;;;4977117;28;20634;-92
2021/07/09 01:04:56;;;;;;;10.63;7.95;;;17.80;99.90;;;;;;4976885;28;20023;-92
2021/07/09 01:07:23;;;;;;;10.02;7.10;;;17.80;99.90;;;;;;4976104;28;20039;-91
2021/07/09 01:09:48;;;;;;;9.52;7.93;;;17.70;99.90;;;;;;4976662;28;20059;-91
2021/07/09 01:12:15;;;;;;;9.15;8.02;;;17.70;99.90;;;;;;4977897;28;20018;-92
2021/07/09 01:14:40;;;;;;;9.95;8.15;;;17.60;99.90;;;;;;4978354;28;20121;-90
2021/07/09 01:17:06;;;;;;;10.60;8.40;;;17.60;99.90;;;;;;4976801;28;20053;-90
2021/07/09 01:19:32;;;;;;;10.80;8.25;;;17.50;99.90;;;;;;4988474;28;20023;-90
2021/07/09 01:21:58;;;;;;;12.73;8.50;;;17.40;99.90;;;;;;4997149;28;20030;-91
2021/07/09 01:24:24;;;;;;;10.93;7.65;;;17.40;99.90;;;;;;4996753;28;20042;-90
2021/07/09 01:26:50;;;;;;;9.27;7.20;;;17.40;99.90;;;;;;4994783;28;20034;-89
2021/07/09 01:29:15;;;;;;;10.38;7.68;;;17.40;99.90;;;;;;4994393;28;20035;-91
2021/07/09 01:31:42;;;;;;;10.02;7.43;;;17.30;99.90;;;;;;4998291;28;20022;-91
2021/07/09 01:34:08;;;;;;;10.43;7.40;;;17.20;99.90;;;;;;4996900;28;20030;-90
2021/07/09 01:36:35;;;;;;;10.30;7.88;;;17.20;99.90;;;;;;4997270;28;20115;-89
2021/07/09 01:39:01;;;;;;;9.98;7.25;;;17.20;99.90;;;;;;4997666;28;20010;-88
2021/07/09 01:41:28;;;;;;;9.68;7.50;;;17.20;99.90;;;;;;4997993;28;20073;-92
2021/07/09 01:43:54;;;;;;;12.38;7.60;;;17.20;99.90;;;;;;4998008;28;20042;-92
2021/07/09 01:46:20;;;;;;;11.63;8.25;;;17.20;99.90;;;;;;4997813;28;20063;-88
2021/07/09 01:48:47;;;;;;;10.90;8.15;;;17.20;99.90;;;;;;4998369;28;20011;-90
2021/07/09 01:51:13;;;;;;;10.27;7.80;;;17.20;99.90;;;;;;4997798;28;20035;-91
2021/07/09 01:53:39;;;;;;;10.00;7.93;;;17.20;99.90;;;;;;4997657;28;20050;-91
2021/07/09 01:56:04;;;;;;;10.48;8.35;;;17.20;99.90;;;;;;4980849;28;20030;-91
2021/07/09 01:58:30;;;;;;;13.45;9.32;;;17.20;99.90;;;;;;4976589;28;20042;-91
2021/07/09 02:00:56;;;;;;;12.85;8.63;;;17.20;99.90;;;;;;4976396;28;20503;-92
2021/07/09 02:03:22;;;;;;;13.93;8.95;;;17.20;99.90;;;;;;4975980;28;20029;-92
2021/07/09 02:05:48;;;;;;;10.77;7.78;;;17.20;99.90;;;;;;4975391;28;20043;-93
2021/07/09 02:08:14;;;;;;;12.15;8.25;;;17.30;99.90;;;;;;4975876;28;20026;-91
2021/07/09 02:10:42;;;;;;;10.52;7.72;;;17.30;99.90;;;;;;4976511;28;20015;-92
2021/07/09 02:13:09;;;;;;;9.82;7.43;;;17.30;99.90;;;;;;4975415;28;20567;-92
2021/07/09 02:15:46;;;;;;;10.90;8.07;;;17.20;99.90;;;;;;4975510;28;20030;-92
2021/07/09 02:18:16;;;;;;;11.57;8.77;;;17.20;99.90;;;;;;4975491;28;20162;-91
2021/07/09 02:20:43;;;;;;;14.73;9.68;;;17.20;99.90;;;;;;4975625;28;20027;-91
2021/07/09 02:23:13;;;;;;;11.95;8.80;;;17.20;99.90;;;;;;4975165;28;20047;-92
2021/07/09 02:25:39;;;;;;;10.60;8.43;;;17.20;99.90;;;;;;4974588;28;20081;-91
2021/07/09 02:28:06;;;;;;;12.80;9.20;;;17.20;99.90;;;;;;4974651;28;20089;-92
2021/07/09 02:30:32;;;;;;;11.18;7.78;;;17.20;99.90;;;;;;4974546;28;20377;-92
2021/07/09 02:32:57;;;;;;;9.75;7.60;;;17.20;99.90;;;;;;4974901;28;20030;-91
2021/07/09 02:35:26;;;;;;;10.05;7.18;;;17.10;99.90;;;;;;4975783;28;20121;-90
2021/07/09 02:37:53;;;;;;;9.88;7.68;;;17.10;99.90;;;;;;4978531;28;20080;-92
2021/07/09 02:40:22;;;;;;;9.70;7.82;;;17.10;99.90;;;;;;4978339;28;20114;-91
2021/07/09 02:42:51;;;;;;;10.40;7.70;;;17.10;99.90;;;;;;4978528;28;20085;-91
2021/07/09 02:45:19;;;;;;;9.55;6.72;;;17.00;99.90;;;;;;4978441;28;20038;-91
2021/07/09 02:47:46;;;;;;;11.63;7.13;;;17.00;99.90;;;;;;4978882;28;20035;-91
2021/07/09 02:50:15;;;;;;;9.35;6.70;;;17.00;99.90;;;;;;4977980;28;20023;-92
2021/07/09 02:52:41;;;;;;;8.65;6.90;;;17.00;99.90;;;;;;4977820;28;20035;-91
2021/07/09 02:55:08;;;;;;;8.25;6.32;;;17.00;99.90;;;;;;4978026;28;20033;-91
2021/07/09 02:57:34;;;;;;;9.07;6.88;;;16.90;99.90;;;;;;4977880;28;20027;-93
2021/07/09 03:00:00;;;;;;;10.10;7.00;;;16.90;99.90;;;;;;4977827;28;20066;-93
2021/07/09 03:02:26;;;;;;;11.27;6.95;;;16.90;99.90;;;;;;4978320;28;20038;-91
2021/07/09 03:04:52;;;;;;;11.57;8.30;;;16.90;99.90;;;;;;4978804;28;20030;-91
2021/07/09 03:07:18;;;;;;;9.75;6.68;;;16.90;99.90;;;;;;4981014;28;20034;-90
2021/07/09 03:09:44;;;;;;;9.02;6.97;;;17.00;99.90;;;;;;4981251;28;20082;-90
2021/07/09 03:12:10;;;;;;;11.52;7.68;;;17.00;99.90;;;;;;4981790;28;20527;-91
2021/07/09 03:14:35;;;;;;;9.85;6.53;;;17.00;99.90;;;;;;4981108;28;20075;-90
2021/07/09 03:17:01;;;;;;;11.20;8.10;;;17.00;99.90;;;;;;4980983;28;20034;-89
2021/07/09 03:19:27;;;;;;;9.88;6.95;;;17.00;99.90;;;;;;4981223;28;20018;-90
2021/07/09 03:21:53;;;;;;;10.75;7.13;;;17.00;99.90;;;;;;4997712;28;20527;-90
2021/07/09 03:24:18;;;;;;;10.80;6.50;;;16.90;99.90;;;;;;4981018;28;20033;-90
2021/07/09 03:26:47;;;;;;;9.65;7.07;;;16.80;99.90;;;;;;4980316;28;20076;-91
2021/07/09 03:29:13;;;;;;;10.40;7.25;;;16.80;99.90;;;;;;4980605;28;20113;-90
2021/07/09 03:31:38;;;;;;;9.85;6.88;;;16.80;99.90;;;;;;4980765;28;20049;-90
2021/07/09 03:34:04;;;;;;;10.48;6.95;;;16.70;99.90;;;;;;4980445;28;20026;-89
2021/07/09 03:36:30;;;;;;;8.95;6.90;;;16.70;99.90;;;;;;4996948;28;20054;-90
2021/07/09 03:38:57;;;;;;;10.35;7.55;;;16.60;99.90;;;;;;4980235;28;20492;-89
2021/07/09 03:41:23;;;;;;;9.25;6.80;;;16.60;99.90;;;;;;4980574;28;20029;-89
2021/07/09 03:43:49;;;;;;;11.05;7.95;;;16.60;99.90;;;;;;4997943;28;20500;-90
2021/07/09 03:46:15;;;;;;;10.63;6.63;;;16.50;99.90;;;;;;4979304;28;20011;-89
2021/07/09 03:48:41;;;;;;;10.52;7.20;;;16.50;99.90;;;;;;4979943;28;20443;-91
2021/07/09 03:51:07;;;;;;;9.93;6.97;;;16.50;99.90;;;;;;4980482;28;20029;-91
2021/07/09 03:53:33;;;;;;;9.35;6.32;;;16.50;99.90;;;;;;4980648;28;20062;-91
2021/07/09 03:55:59;;;;;;;11.15;6.60;;;16.40;99.90;;;;;;4980363;28;20076;-91
2021/07/09 03:58:25;;;;;;;10.10;6.22;;;16.40;99.90;;;;;;4980266;28;20077;-90
2021/07/09 04:00:50;;;;;;;9.10;6.80;;;16.40;99.90;;;;;;4980143;28;20065;-91
2021/07/09 04:03:16;;;;;;;9.95;6.93;;;16.40;99.90;;;;;;4980547;28;20018;-91
2021/07/09 04:05:42;;;;;;;8.90;6.43;;;16.40;99.90;;;;;;4980546;28;20062;-92
2021/07/09 04:08:07;;;;;;;9.85;6.70;;;16.30;99.90;;;;;;4980578;28;20501;-91
2021/07/09 04:10:33;;;;;;;9.98;6.70;;;16.40;99.90;;;;;;4980123;28;20485;-91
2021/07/09 04:12:59;;;;;;;10.32;6.75;;;16.40;99.90;;;;;;4980379;28;20065;-92
2021/07/09 04:15:25;;;;;;;9.05;6.10;;;16.30;99.90;;;;;;4981476;28;20022;-91
2021/07/09 04:17:51;;;;;;;8.98;5.95;;;16.30;99.90;;;;;;4983566;28;20027;-90
2021/07/09 04:20:16;;;;;;;10.05;6.63;;;16.30;99.90;;;;;;4980287;28;20024;-93
2021/07/09 04:22:42;;;;;;;9.85;7.40;;;16.30;99.90;;;;;;4982098;28;20106;-90
2021/07/09 04:25:09;;;;;;;11.13;7.35;;;16.30;99.90;;;;;;4983154;28;20018;-91
2021/07/09 04:27:40;;;;;;;11.10;7.13;;;16.30;99.90;;;;;;4979595;28;20042;-91
2021/07/09 04:30:10;;;;;;;11.27;7.68;;;16.30;99.90;;;;;;4979867;28;20114;-90
2021/07/09 04:32:36;;;;;;;11.10;7.18;;;16.30;99.90;;;;;;4979792;28;20033;-90
2021/07/09 04:35:02;;;;;;;8.95;6.53;;;16.30;99.90;;;;;;4979849;28;20380;-90
2021/07/09 04:37:28;;;;;;;9.60;7.20;;;16.30;99.90;;;;;;4979739;28;20026;-92
2021/07/09 04:39:53;;;;;;;10.48;7.47;;;16.30;99.90;;;;;;4979757;28;20030;-91
2021/07/09 04:42:19;;;;;;;12.20;7.95;;;16.30;99.90;;;;;;4979871;28;20388;-91
2021/07/09 04:44:45;;;;;;;11.70;8.65;;;16.30;99.90;;;;;;4979522;28;20014;-92
2021/07/09 04:47:11;;;;;;;11.88;8.38;;;16.40;99.90;;;;;;4979492;28;20034;-91
2021/07/09 04:49:38;;;;;;;12.55;7.85;;;16.40;99.90;;;;;;4979416;28;20567;-91
2021/07/09 04:52:03;;;;;;;12.38;8.23;;;16.40;99.90;;;;;;4979211;28;20468;-91
2021/07/09 04:54:29;;;;;;;11.70;8.50;;;16.50;99.90;;;;;;4979288;28;20031;-91
2021/07/09 04:56:55;;;;;;;10.45;7.63;;;16.50;99.90;;;;;;4979415;28;20014;-91
2021/07/09 04:59:20;;;;;;;10.15;7.68;;;16.50;99.90;;;;;;4978914;28;20027;-93
2021/07/09 05:01:46;;;;;;;11.30;8.50;;;16.60;99.90;;;;;;4979009;28;20460;-91
2021/07/09 05:04:11;;;;;;;10.77;8.13;;;16.60;99.90;;;;;;4978951;28;20033;-92
2021/07/09 05:06:37;;;;;;;10.88;7.97;;;16.60;99.90;;;;;;4978781;28;20532;-92
2021/07/09 05:09:07;;;;;;;10.77;8.15;;;16.60;99.90;;;;;;4978944;28;20069;-91
2021/07/09 05:11:35;;;;;;;12.07;8.73;;;16.70;99.90;;;;;;4978811;28;20499;-91
2021/07/09 05:14:01;;;;;;;11.52;8.48;;;16.70;99.90;;;;;;4996098;28;20126;-91
2021/07/09 05:16:27;;;;;;;13.77;8.73;;;16.70;99.90;;;;;;4978358;28;20019;-90
2021/07/09 05:18:54;;;;;;;11.52;8.20;;;16.80;99.90;;;;;;4978645;28;20088;-91
2021/07/09 05:21:20;;;;;;;9.95;7.85;;;16.80;99.90;;;;;;4978342;28;20027;-91
2021/07/09 05:23:46;;;;;;;9.35;7.60;;;16.90;99.90;;;;;;4978132;28;20035;-91
2021/07/09 05:26:11;;;;;;;10.95;6.80;;;16.90;99.90;;;;;;4978655;28;20015;-92
2021/07/09 05:28:37;;;;;;;10.25;7.70;;;16.90;99.90;;;;;;4995661;28;20035;-92
2021/07/09 05:31:03;;;;;;;10.07;7.07;;;17.00;99.90;;;;;;4978483;28;20025;-91
2021/07/09 05:33:29;;;;;;;12.45;7.97;;;17.10;99.90;;;;;;4978435;28;20026;-91
2021/07/09 05:35:55;;;;;;;12.73;8.32;;;17.10;99.90;;;;;;4978638;28;20105;-89
2021/07/09 05:38:21;;;;;;;11.95;8.00;;;17.10;99.90;;;;;;4978408;28;20485;-89
2021/07/09 05:40:46;;;;;;;10.23;7.53;;;17.20;99.90;;;;;;4978170;28;20065;-89
2021/07/09 05:43:12;;;;;;;9.35;7.20;;;17.20;99.90;;;;;;4978002;28;20076;-91
2021/07/09 05:45:38;;;;;;;10.27;6.97;;;17.30;99.90;;;;;;4978899;28;20026;-90
2021/07/09 05:48:04;;;;;;;10.13;6.47;;;17.40;99.90;;;;;;4978561;28;20034;-91
2021/07/09 05:50:29;;;;;;;8.13;6.30;;;17.40;99.90;;;;;;4978059;28;20034;-92
2021/07/09 05:52:55;;;;;;;7.45;5.97;;;17.50;99.90;;;;;;4978175;28;20022;-90
2021/07/09 05:55:21;;;;;;;8.82;6.13;;;17.60;99.90;;;;;;4977498;28;20018;-90
2021/07/09 05:57:47;;;;;;;8.18;5.72;;;17.70;99.90;;;;;;4977558;28;20029;-91
2021/07/09 06:00:25;;;;;;;7.63;5.80;;;17.70;99.90;;;;;;4978093;28;20022;-93
2021/07/09 06:03:29;;;;;;;8.45;5.22;;;17.80;99.90;;;;;;4978480;28;20034;-92
2021/07/09 06:06:44;;;;;;;6.82;4.90;;;17.80;99.90;;;;;;4945746;28;20540;-94
2021/07/09 06:09:17;;;;;;;9.00;5.15;;;17.80;99.90;;;;;;4976747;23;20064;-91
2021/07/09 06:11:56;;;;;;;5.57;4.25;;;17.90;99.90;;;;;;5004704;28;20127;-91
2021/07/09 06:26:16;;;;;;;;;;;;;;;;;;;;;
2021/07/09 06:28:55;;;;;;;5.45;3.75;;;18.30;99.90;;;;;;4841564;29;20057;-92
2021/07/09 06:42:02;;;;;;;;;;;;;;;;;;;;;
2021/07/09 06:47:55;;;;;;;4.85;3.20;;;18.50;99.90;;;;;;4813546;29;20139;-91
2021/07/09 06:51:05;;;;;;;6.10;3.30;;;18.50;99.90;;;;;;4822123;29;20050;-91
2021/07/09 06:54:08;;;;;;;5.75;3.58;;;18.60;99.90;;;;;;4868017;29;20036;-90
2021/07/09 06:59:45;;;;;;;;;;;;;;;;;;;;;
2021/07/09 07:02:40;;;;;;;4.55;3.22;;;18.70;99.90;;;;;;5031719;28;20053;-90
2021/07/09 07:05:33;;;;;;;5.85;4.03;;;18.90;99.90;;;;;;4996398;28;20044;-91
2021/07/09 07:08:31;;;;;;;5.53;3.55;;;18.90;99.90;;;;;;4982282;28;20020;-91
2021/07/09 07:11:21;;;;;;;;;;;;;;;;;;;;;
2021/07/09 07:14:19;;;;;;;;;;;;;;;;;;;;;
2021/07/09 07:16:57;;;;;;;6.15;3.75;;;19.20;99.90;;;;;;4979506;28;20039;-90
2021/07/09 07:20:04;;;;;;;;;;;;;;;;;;;;;
2021/07/09 07:23:01;;;;;;;;;;;;;;;;;;;;;
2021/07/09 07:25:56;;;;;;;9.00;6.97;;;19.40;99.90;;;;;;4958166;28;20521;-91
2021/07/09 07:29:09;;;;;;;;;;;;;;;;;;;;;
2021/07/09 07:31:56;;;;;;;;;;;;;;;;;;;;;
2021/07/09 07:34:48;;;;;;;8.73;6.88;;;19.50;99.90;;;;;;4976369;28;20035;-89
2021/07/09 07:44:29;;;;;;;;;;;;;;;;;;;;;
2021/07/09 07:50:27;;;;;;;;;;;;;;;;;;;;;
2021/07/09 08:16:31;;;;;;;;;;;;;;;;;;;;;
2021/07/09 09:02:56;;;;;;;;;;;;;;;;;;;;;
2021/07/09 10:36:04;;;;;;;;;;;;;;;;;;;;;
2021/07/09 11:34:39;;;;;;;;;;;;;;;;;;;;;
2021/07/09 11:45:19;;;;;;;5.82;3.90;;;31.30;90.40;;;;;;4934927;29;20535;-92
2021/07/09 12:09:28;;;;;;;4.75;3.47;;;32.40;78.70;;;;;;5090395;27;20475;-87
2021/07/09 12:12:00;;;;;;;3.67;3.25;;;32.30;78.70;;;;;;5070556;28;20710;-86
2021/07/09 12:14:25;;;;;;;5.72;4.20;;;32.50;77.70;;;;;;5065246;28;20131;-88
2021/07/09 12:16:51;;;;;;;5.82;4.00;;;32.60;76.80;;;;;;5071665;28;20876;-89
2021/07/09 12:19:17;;;;;;;6.38;4.47;;;32.50;75.80;;;;;;5067851;28;20085;-88
2021/07/09 12:21:52;;;;;;;6.05;4.45;;;32.60;75.90;;;;;;5082397;28;20039;-88
2021/07/09 12:24:20;;;;;;;5.22;3.53;;;33.00;76.10;;;;;;5089042;28;20055;-87
2021/07/09 12:26:48;;;;;;;4.75;3.72;;;33.30;75.70;;;;;;5088378;28;20020;-89
2021/07/09 12:29:16;;;;;;;4.78;3.50;;;33.40;72.90;;;;;;5090953;28;20047;-92
2021/07/09 12:34:57;;;;;;;5.50;3.70;;;33.50;72.20;;;;;;5057957;23;20133;-93
2021/07/09 12:40:16;;;;;;;5.32;3.17;;;33.10;72.50;;;;;;5352961;23;20058;-92
2021/07/09 12:42:44;;;;;;;4.93;3.72;;;33.40;71.80;;;;;;5015401;28;20948;-90
2021/07/09 12:45:32;;;;;;;5.15;3.38;;;33.50;72.10;;;;;;5031236;28;20563;-92
2021/07/09 12:47:57;;;;;;;5.07;3.58;;;33.70;71.40;;;;;;5030176;28;20060;-91
2021/07/09 12:51:24;;;;;;;5.22;3.60;;;33.70;71.00;;;;;;5029930;28;20022;-92
2021/07/09 12:54:27;;;;;;;5.00;3.72;;;33.90;70.00;;;;;;4980974;28;20483;-93
2021/07/09 13:02:24;;;;;;;5.28;4.15;;;33.70;68.70;;;;;;5138541;23;20468;-94
2021/07/09 13:04:53;;;;;;;5.10;4.18;;;34.00;68.30;;;;;;5020684;28;20122;-93
2021/07/09 13:25:26;;;;;;;6.05;5.20;;;34.00;70.40;;;;;;5023426;28;20054;-89
2021/07/09 13:28:00;;;;;;;6.43;4.93;;;34.00;69.00;;;;;;5019891;28;20046;-89
2021/07/09 13:30:33;;;;;;;6.05;4.45;;;34.20;69.40;;;;;;5032671;28;20018;-89
2021/07/09 13:32:59;;;;;;;6.90;4.82;;;34.40;69.20;;;;;;5040355;28;20049;-89
2021/07/09 13:35:24;;;;;;;8.27;6.68;;;34.40;69.20;;;;;;5024727;28;20018;-91
2021/07/09 13:37:50;;;;;;;10.25;6.07;;;33.70;65.70;;;;;;5046328;28;20040;-89
2021/07/09 13:40:16;;;;;;;6.93;5.68;;;32.80;66.90;;;;;;5016938;28;20018;-88
2021/07/09 13:42:45;;;;;;;8.23;5.63;;;32.20;68.20;;;;;;5032834;28;20022;-91
2021/07/09 13:45:12;;;;;;;6.47;5.43;;;31.90;69.30;;;;;;5008059;28;20019;-91
2021/07/09 13:47:39;;;;;;;6.10;4.93;;;31.70;70.60;;;;;;4995888;28;20056;-91
2021/07/09 13:50:07;;;;;;;7.53;6.10;;;31.40;71.00;;;;;;5002696;28;20047;-92
2021/07/09 13:52:33;;;;;;;7.93;6.00;;;31.00;72.30;;;;;;5024540;28;20034;-91
2021/07/09 13:55:00;;;;;;;7.47;5.57;;;30.50;73.40;;;;;;5001081;28;20629;-90
2021/07/09 13:57:27;;;;;;;8.20;5.05;;;30.40;74.30;;;;;;5009333;28;20037;-90
2021/07/09 13:59:52;;;;;;;8.65;5.93;;;30.60;74.90;;;;;;5008841;28;20312;-88
2021/07/09 14:04:50;;;;;;;7.67;5.77;;;30.90;74.70;;;;;;5019365;23;20149;-91
2021/07/09 14:07:22;;;;;;;8.90;5.15;;;31.20;74.30;;;;;;5015806;28;20033;-92
2021/07/09 14:09:47;;;;;;;7.47;6.25;;;31.60;74.00;;;;;;5011363;28;20026;-89
2021/07/09 14:12:13;;;;;;;9.55;6.43;;;31.90;73.20;;;;;;5014703;28;20803;-91
2021/07/09 14:14:40;;;;;;;9.38;6.93;;;31.50;72.70;;;;;;4998602;28;20150;-94
2021/07/09 14:17:43;;;;;;;8.10;6.00;;;31.10;73.40;;;;;;5020020;28;20022;-93
2021/07/09 14:20:11;;;;;;;8.65;7.05;;;30.60;74.20;;;;;;5010367;28;20042;-89
2021/07/09 14:22:37;;;;;;;6.60;5.22;;;30.20;74.80;;;;;;5032702;28;20392;-92
2021/07/09 14:25:04;;;;;;;6.90;5.20;;;30.00;75.50;;;;;;5032356;28;20025;-91
2021/07/09 14:27:29;;;;;;;7.07;5.57;;;30.00;77.00;;;;;;5020227;28;20392;-90
2021/07/09 14:29:55;;;;;;;6.72;5.07;;;30.00;77.50;;;;;;5013730;28;20045;-92
2021/07/09 14:32:21;;;;;;;7.43;5.20;;;30.00;77.30;;;;;;5012873;28;20037;-93
2021/07/09 14:34:46;;;;;;;7.68;6.10;;;30.10;77.10;;;;;;5014685;28;20026;-93
2021/07/09 14:37:14;;;;;;;6.75;5.25;;;30.20;77.30;;;;;;5015307;28;20106;-92
2021/07/09 14:39:40;;;;;;;8.15;6.20;;;30.20;76.70;;;;;;5013920;28;20039;-89
2021/07/09 14:42:06;;;;;;;7.30;5.57;;;30.20;76.10;;;;;;5013385;28;20030;-89
2021/07/09 14:44:31;;;;;;;5.97;4.63;;;30.30;76.20;;;;;;5014180;28;20116;-89
2021/07/09 14:46:57;;;;;;;7.28;5.60;;;30.40;76.70;;;;;;5014220;28;20076;-92
2021/07/09 14:49:23;;;;;;;6.50;5.10;;;30.50;76.90;;;;;;5014176;28;20041;-91
2021/07/09 14:51:48;;;;;;;5.90;4.40;;;30.30;77.20;;;;;;5013877;28;20552;-92
2021/07/09 14:54:14;;;;;;;5.93;4.75;;;30.20;78.20;;;;;;5013038;28;20022;-92
2021/07/09 14:56:39;;;;;;;6.90;4.95;;;30.30;78.80;;;;;;5013507;28;20022;-91
2021/07/09 14:59:06;;;;;;;6.28;5.50;;;30.40;78.80;;;;;;5013398;28;20034;-90
2021/07/09 15:01:34;;;;;;;6.95;5.85;;;30.60;78.80;;;;;;5013026;28;20030;-91
2021/07/09 15:04:06;;;;;;;7.93;5.07;;;30.60;78.80;;;;;;5030041;28;20784;-92
2021/07/09 15:06:33;;;;;;;7.68;5.55;;;30.60;79.10;;;;;;5032955;28;20148;-89
2021/07/09 15:08:58;;;;;;;7.28;5.60;;;30.40;78.90;;;;;;5036984;28;20033;-89
2021/07/09 15:11:24;;;;;;;9.30;8.30;;;30.20;79.40;;;;;;5008796;28;20030;-89
2021/07/09 15:13:50;;;;;;;9.02;7.47;;;29.80;79.50;;;;;;5010462;28;20026;-90
2021/07/09 15:16:16;;;;;;;11.07;9.00;;;29.50;80.00;;;;;;5012114;28;20041;-91
2021/07/09 15:18:41;;;;;;;10.70;9.35;;;29.40;79.60;;;;;;5011517;28;20022;-87
2021/07/09 15:21:08;;;;;;;10.00;8.30;;;29.10;79.00;;;;;;5012096;28;20034;-91
2021/07/09 15:23:34;;;;;;;8.13;7.07;;;28.90;79.70;;;;;;5012575;28;20030;-91
2021/07/09 15:25:59;;;;;;;8.23;7.35;;;29.10;80.10;;;;;;5011930;28;20069;-89
2021/07/09 15:28:25;;;;;;;11.43;9.85;;;29.60;80.40;;;;;;5011209;28;20038;-89
2021/07/09 15:30:51;;;;;;;8.45;7.38;;;29.70;79.20;;;;;;5010882;28;20076;-89
2021/07/09 15:33:17;;;;;;;8.88;7.97;;;29.70;79.90;;;;;;5009972;28;20050;-89
2021/07/09 15:35:45;;;;;;;10.20;9.15;;;29.80;80.00;;;;;;5009760;28;20137;-89
2021/07/09 15:38:11;;;;;;;7.65;6.85;;;29.80;78.70;;;;;;5008970;28;20034;-86
2021/07/09 15:40:37;;;;;;;9.63;8.20;;;29.60;79.70;;;;;;5007278;28;20495;-87
2021/07/09 15:43:02;;;;;;;7.72;6.68;;;29.50;80.00;;;;;;5008109;28;20048;-86
2021/07/09 15:45:28;;;;;;;7.10;6.40;;;29.60;80.30;;;;;;5009426;28;20030;-85
2021/07/09 15:47:54;;;;;;;8.63;7.05;;;30.00;79.70;;;;;;5008979;28;20054;-86
2021/07/09 15:50:19;;;;;;;7.95;5.80;;;30.20;79.20;;;;;;5010634;28;20029;-86
2021/07/09 15:52:46;;;;;;;7.80;6.53;;;30.30;79.30;;;;;;5008436;28;20029;-87
2021/07/09 15:55:12;;;;;;;6.90;6.15;;;30.40;79.30;;;;;;5008802;28;20472;-90
2021/07/09 15:57:38;;;;;;;8.50;7.38;;;30.30;79.40;;;;;;5013224;28;20026;-88
2021/07/09 16:00:06;;;;;;;8.25;6.90;;;29.80;77.90;;;;;;4992492;28;20034;-90
2021/07/09 16:02:31;;;;;;;6.75;5.57;;;29.30;78.90;;;;;;4992033;28;20045;-90
2021/07/09 16:04:57;;;;;;;8.18;6.90;;;29.00;79.60;;;;;;5002432;28;20021;-89
2021/07/09 16:07:22;;;;;;;9.63;7.40;;;28.80;80.10;;;;;;5012786;28;20030;-89
2021/07/09 16:09:48;;;;;;;7.80;7.00;;;28.60;80.40;;;;;;5016606;28;20087;-88
2021/07/09 16:12:20;;;;;;;11.23;9.18;;;28.40;80.80;;;;;;5016501;28;20030;-91
2021/07/09 16:14:45;;;;;;;7.97;6.97;;;28.20;80.30;;;;;;5012969;28;20529;-89
2021/07/09 16:17:11;;;;;;;8.52;6.53;;;27.90;81.50;;;;;;5014476;28;20046;-88
2021/07/09 16:19:40;;;;;;;10.88;6.82;;;27.80;82.10;;;;;;5011996;28;20534;-87
2021/07/09 16:22:07;;;;;;;8.38;7.15;;;27.80;82.60;;;;;;5006050;28;20438;-89
2021/07/09 16:24:38;;;;;;;9.15;7.15;;;27.60;83.30;;;;;;5002752;28;20029;-89
2021/07/09 16:27:05;;;;;;;8.25;6.38;;;27.60;83.50;;;;;;5001369;28;20104;-86
2021/07/09 16:29:31;;;;;;;8.80;7.05;;;27.50;84.10;;;;;;4997996;28;20156;-88
2021/07/09 16:31:57;;;;;;;8.85;6.07;;;27.40;84.50;;;;;;4999886;28;20101;-87
2021/07/09 16:34:23;;;;;;;8.60;7.30;;;27.40;83.60;;;;;;4995138;28;20080;-90
2021/07/09 16:36:48;;;;;;;7.53;6.40;;;27.30;83.40;;;;;;4993278;28;20420;-89
2021/07/09 16:39:15;;;;;;;9.25;6.45;;;27.20;83.80;;;;;;4992970;28;20030;-90
2021/07/09 16:41:41;;;;;;;7.72;6.25;;;27.00;84.40;;;;;;4992944;28;20026;-88
2021/07/09 16:44:08;;;;;;;8.25;6.40;;;26.90;84.50;;;;;;4992639;28;20034;-90
2021/07/09 16:46:37;;;;;;;8.00;6.18;;;26.80;84.80;;;;;;4992436;28;20033;-90
2021/07/09 16:49:02;;;;;;;7.65;5.95;;;26.60;85.20;;;;;;4988973;28;20178;-90
2021/07/09 16:51:37;;;;;;;7.80;7.00;;;26.60;85.40;;;;;;4992041;28;20109;-91
2021/07/09 16:54:04;;;;;;;8.90;7.25;;;26.70;85.20;;;;;;4994170;28;20577;-90
2021/07/09 16:56:30;;;;;;;10.05;8.20;;;26.40;85.20;;;;;;4996760;28;20022;-91
2021/07/09 16:58:55;;;;;;;10.98;8.93;;;26.20;85.00;;;;;;5006152;28;20033;-88
2021/07/09 17:01:21;;;;;;;9.20;6.60;;;25.80;85.60;;;;;;5014036;28;20026;-88
2021/07/09 17:03:47;;;;;;;8.13;6.68;;;25.60;86.40;;;;;;5014497;28;20504;-88
2021/07/09 17:06:13;;;;;;;6.63;5.45;;;25.80;86.60;;;;;;5014172;28;20026;-89
2021/07/09 17:08:39;;;;;;;7.55;5.32;;;26.10;86.40;;;;;;5014429;28;20034;-87
2021/07/09 17:11:05;;;;;;;7.55;5.28;;;26.40;85.60;;;;;;5013746;28;20022;-88
2021/07/09 17:13:31;;;;;;;8.15;5.90;;;26.50;85.60;;;;;;5014483;28;20129;-88
2021/07/09 17:15:56;;;;;;;7.70;5.82;;;26.70;85.20;;;;;;5014927;28;20116;-91
2021/07/09 17:18:24;;;;;;;6.82;5.15;;;26.80;85.20;;;;;;5015070;28;20022;-88
2021/07/09 17:20:49;;;;;;;6.55;5.68;;;26.80;85.20;;;;;;5015304;28;20580;-90
2021/07/09 17:23:15;;;;;;;5.60;5.00;;;26.70;86.10;;;;;;5014619;28;20660;-88
2021/07/09 17:25:41;;;;;;;7.93;5.40;;;26.40;86.80;;;;;;5015242;28;20088;-88
2021/07/09 17:28:07;;;;;;;7.22;6.53;;;26.20;87.30;;;;;;5015462;28;20471;-88
2021/07/09 17:30:33;;;;;;;8.23;6.20;;;26.10;87.60;;;;;;4994976;28;20524;-89
2021/07/09 17:32:59;;;;;;;10.57;8.75;;;25.90;88.20;;;;;;4993302;28;20126;-90
2021/07/09 17:35:24;;;;;;;7.63;6.22;;;25.60;87.50;;;;;;4994906;28;20058;-89
2021/07/09 17:37:50;;;;;;;7.10;5.72;;;25.30;88.50;;;;;;4993963;28;20095;-89
2021/07/09 17:40:17;;;;;;;7.40;6.03;;;25.30;89.20;;;;;;4994070;28;20022;-89
2021/07/09 17:42:42;;;;;;;7.35;5.28;;;25.30;88.80;;;;;;4995063;28;20022;-90
2021/07/09 17:45:09;;;;;;;7.40;4.88;;;25.30;89.20;;;;;;4994159;28;20479;-89
2021/07/09 17:47:34;;;;;;;6.18;4.85;;;25.40;89.20;;;;;;4994982;28;20038;-89
2021/07/09 17:50:00;;;;;;;7.88;6.43;;;25.40;89.70;;;;;;4993657;28;20552;-88
2021/07/09 17:52:25;;;;;;;7.65;5.60;;;25.30;89.70;;;;;;4993171;28;20083;-87
2021/07/09 17:54:51;;;;;;;7.55;6.57;;;25.10;90.20;;;;;;4993605;28;20117;-87
2021/07/09 17:57:18;;;;;;;6.40;5.30;;;24.80;90.40;;;;;;4993750;28;20460;-90
2021/07/09 17:59:44;;;;;;;8.07;6.10;;;24.70;90.70;;;;;;4994447;28;20030;-89
2021/07/09 18:02:10;;;;;;;6.75;5.60;;;24.60;90.70;;;;;;5008235;28;20030;-90
2021/07/09 18:04:35;;;;;;;6.32;4.55;;;24.50;90.90;;;;;;5013699;28;20697;-88
2021/07/09 18:07:04;;;;;;;6.15;5.30;;;24.60;91.00;;;;;;5014425;28;20025;-91
2021/07/09 18:09:29;;;;;;;6.82;5.28;;;24.80;91.20;;;;;;5015023;28;20399;-90
2021/07/09 18:12:10;;;;;;;5.53;4.72;;;24.60;91.10;;;;;;5015331;28;20033;-91
2021/07/09 18:14:35;;;;;;;5.10;4.30;;;24.60;91.20;;;;;;5015430;28;20022;-91
2021/07/09 18:17:06;;;;;;;6.57;4.70;;;24.60;91.40;;;;;;5015717;28;20018;-92
2021/07/09 18:19:37;;;;;;;6.15;4.30;;;24.60;91.20;;;;;;5015195;28;20057;-92
2021/07/09 18:22:09;;;;;;;5.30;4.30;;;24.60;91.40;;;;;;5014375;28;20029;-91
2021/07/09 18:25:00;;;;;;;5.93;4.18;;;24.60;91.10;;;;;;5015674;28;20022;-91